« Back
NWS Peachtree City, Ga » Text Product » CSG Terminal Aerodrome Forecast


Printer-friendly Version
Current Version              Previous Versions:   1  2  3  4  5  6  7  8  9  

Terminal Aerodrome Forecast

929
FTUS42 KFFC 291130
TAFCSG
TAF
KCSG 291130Z 2912/3012 09005KT P6SM BKN250
     FM291400 10006KT P6SM SCT035
     FM291700 12009KT P6SM BKN040 BKN250
     FM300000 11004KT P6SM SCT080=



USA.gov is the U.S. government's official web portal to all federal, state and local government web resources and services.